CheckWX is a tool to help pilots better visualize weather data.  It is not intended as a substitute for an official pre-flight weather briefing.

21:21:51 UTC

KBLI METAR
Bellingham International Airport
Bellingham, Washington, USA
Current

29 mins ago

KBLI 232053Z VRB03KT 10SM CLR 21/12 A2995 RMK AO2 SLP146 T02060122 56022
Observed
May-23 @ 20:53 UTC
Wind
  • Variable at 3 KTS
Visibility
10 SM
Flight Rules
VFR
Cloud Levels
  • Clear skies
Temperature
21°C / 70°F
Dewpoint
12°C / 54°F
Humidity
57%
Altimeter
29.95" Hg
Pressure
1014.22 hPa
Previous

1 hour ago

KBLI 231953Z VRB05KT 10SM CLR 20/13 A2996 RMK AO2 SLP152 T02000133
Observed
May-23 @ 19:53 UTC
Wind
  • Variable at 5 KTS
Visibility
10 SM
Flight Rules
VFR
Cloud Levels
  • Clear skies
Temperature
20°C / 68°F
Dewpoint
13°C / 55°F
Humidity
64%
Altimeter
29.96" Hg
Pressure
1014.52 hPa
Previous

2 hours ago

KBLI 231853Z 23005KT 10SM CLR 18/11 A2999 RMK AO2 SLP161 T01830111
Observed
May-23 @ 18:53 UTC
Wind
  • 230° at 5 KTS
Visibility
10 SM
Flight Rules
VFR
Cloud Levels
  • Clear skies
Temperature
18°C / 64°F
Dewpoint
11°C / 52°F
Humidity
64%
Altimeter
29.99" Hg
Pressure
1015.62 hPa